Anucino, Russia
Current Conditions -  °F | °C
As of 7:30 AM on Friday 28 Nov 2014 (Local Time) from UHWW Reporting Station
Overcast Overcast  
Wind Chill: 21°   Ceiling: 5000
Heat Index: 28°   Visibility: 6mi
Dew Point: 12°   Wind: 7mph
Humidity: 51%   Direction: 320°NW
Pressure: 30.27"   Gusts: NA
Location:  43.97°N, 133.07°E
Report Text: UHWW 272130Z 32003MPS 9999 OVC050 M02/M11 Q1025 NOSIG RMKQFE768/1024 25CLRD70
Loading
Personal Weather Stations






























Interactive Weather Map New forecast layout! Learn more

10-Day Weather Forecast

Advertisements
Track Severe Weather on mobile